University Park, PA (16802)

12:53 AM EST on February 10, 2016 (GMT -0500)
Our Lady of Victory School | | Change Station
CLOSE
Current Station
Personal Weather Station
Location: State College, PA
Elevation: 1145 ft
Nearby Weather Stations

Elev 1145 ft 40.78 °N, 77.87 °W | Updated 4 seconds ago

Overcast
Overcast
27.5 °F
Feels Like 28 °F
N
0.4
Wind Variable Wind from West
Gusts 2.5 mph

Today
High -- | Low -- °F
--% Chance of Precip.
Yesterday
High -- | Low -- °F
Precip. -- in
Pressure 29.61 in
Visibility 10.0 miles
Clouds Overcast 1400 ft
Windchill 28 °F
Dew Point 18 °F
Humidity 68%
Rainfall 0.00 in
Snow Depth Not available.
7:12 AM 5:39 PM
Waxing Crescent, 4% visible
METAR KUNV 100535Z AUTO 26010KT 10SM OVC014 M03/M05 A2961 RMK AO2 T10261049
Pressure 29.61 in
Visibility 10.0 miles
Clouds Overcast 1400 ft
Windchill 28 °F
Dew Point 18 °F
Humidity 68%
Rainfall 0.00 in
Snow Depth Not available.
7:12 AM 5:39 PM
Waxing Crescent, 4% visible
METAR KUNV 100535Z AUTO 26010KT 10SM OVC014 M03/M05 A2961 RMK AO2 T10261049
Winter Storm Nacio, the third winter storm in five days to affect the Northeast, is bringing pockets of locally heavy snow to parts of the Ohio Valley, Appalachians and mid-Atlantic states Tuesday. Winter storm warnings are posted for parts of southern Pennsylvania, southern Ohio and the higher peaks of the Appalachians. Winter weather advisories, generally for lighter snow accumulations, stretch from northeast Alabama and far north Georgia to southern Connecticut and Long Island.

10-Day Weather Forecast

Almanac

Astronomy

Feb. 10, 2016 Rise Set
Actual Time
Civil Twilight
Nautical Twilight
Astronomical Twilight
Moon
Length of Visible Light
Length of Day
Tomorrow will be .
, % of the Moon is Illuminated

Today's Extremes

State Highs State Lows

Community

WunderPhotos

Upload Photos

1,891,823 photos uploaded!

WunderBlog® & News

Nearby

Air Quality

  Air Quality AQ Index Pollutant
Not available.

Snow Depth

Station Depth Elevation

Earthquake Activity

City Distance Mag. Time & Date
Minimum magnitude displayed is 2.5.

Coastal Water Temperatures

Place Temperature

Stations

Nearby Weather Stations

Station Location Temp. Windchill Dew Point Humidity Wind Precip. Elev Updated Type
                   

Watches & Warnings

There are currently no watches in effect.